Welcome to Northern Hawkes Bay. New Zealand.
PWS Header
      nz Flag



Hit Counter


W3C Valid W3C Valid logo


    Wairoa

Select any of the Stations below to visit their websites.










Historic Data from Weather Underground
Select the location of interest below. Wairoa is the default. Please have patience, this Data is slow to load in.
Northern Hawkes Bay Historical Data
Daily Summary for April 28, 2017 Units:  English    Metric   Both
« Previous Day
Next Day »
Daily Weekly Monthly Yearly Custom
  High: Low: Average:
Temperature: 74.1 °F 47.3 °F 60.3 °F
Dew Point: 54.3 °F 46.8 °F 50.4 °F
Humidity: 99% 44% 73%
Wind Speed: 12.1mph 0mph 5.2mph
Wind Gust: 22.1mph - -
Wind- - NW
Pressure: 30.1 in 29.9 in -
Precipitation: 0 in    
Historical Graphs
 
 
Tabular Data for April 28, 2017
Time Temperature Dew Point Pressure Wind Wind Speed Wind Gust Humidity Rainfall Rate (Hourly) solar
00:02 51.4 °F 51.3 °F 30.1 in NNW 8.3 mph 12.1 mph 99% 0 in 0 W/m2
00:07 51.6 °F 51.4 °F 30.1 in NNW 4.5 mph 12.1 mph 99% 0 in 0 W/m2
00:12 51.4 °F 51.3 °F 30.1 in NNW 6 mph 10.7 mph 99% 0 in 0 W/m2
00:17 51.4 °F 51.3 °F 30.1 in NW 6.9 mph 10.7 mph 99% 0 in 0 W/m2
00:22 51.6 °F 51.4 °F 30.1 in NNW 4.5 mph 10.7 mph 99% 0 in 0 W/m2
00:27 51.4 °F 50.9 °F 30.1 in NNW 5.4 mph 9.8 mph 98% 0 in 0 W/m2
00:32 51.3 °F 50.7 °F 30.1 in NNW 5.4 mph 9.8 mph 98% 0 in 0 W/m2
00:37 51.3 °F 50.4 °F 30.1 in NNW 3.8 mph 9.2 mph 97% 0 in 0 W/m2
00:42 51.1 °F 50.4 °F 30.1 in NNW 5.4 mph 9.2 mph 97% 0 in 0 W/m2
00:47 50.9 °F 50.2 °F 30.1 in NW 3.8 mph 9.2 mph 97% 0 in 0 W/m2
00:52 50.9 °F 50.2 °F 30.1 in NW 3.8 mph 7.6 mph 97% 0 in 0 W/m2
00:57 50.7 °F 49.8 °F 30.1 in NNW 3.8 mph 7.6 mph 97% 0 in 0 W/m2
01:02 50.5 °F 50 °F 30.1 in NNW 5.4 mph 6.9 mph 98% 0 in 0 W/m2
01:07 50.5 °F 50 °F 30.1 in NNW 3.1 mph 7.6 mph 98% 0 in 0 W/m2
01:12 50.7 °F 50.2 °F 30.1 in NNW 4.5 mph 8.3 mph 98% 0 in 0 W/m2
01:17 50.5 °F 50 °F 30.1 in NNW 0.7 mph 8.3 mph 98% 0 in 0 W/m2
01:22 50.5 °F 50 °F 30.1 in Calm   7.6 mph 98% 0 in 0 W/m2
01:27 50.4 °F 49.8 °F 30.1 in Calm   5.4 mph 98% 0 in 0 W/m2
01:32 50.2 °F 49.6 °F 30.1 in NNW 1.6 mph 3.8 mph 98% 0 in 0 W/m2
01:37 50.2 °F 49.6 °F 30.1 in NNW 2.2 mph 4.5 mph 98% 0 in 0 W/m2
01:42 50.2 °F 49.6 °F 30.1 in Calm   5.4 mph 98% 0 in 0 W/m2
01:47 50.2 °F 49.6 °F 30.1 in NNW 0.7 mph 5.4 mph 98% 0 in 0 W/m2
01:52 50 °F 49.5 °F 30.1 in NNW 3.1 mph 5.4 mph 98% 0 in 0 W/m2
01:57 50.2 °F 49.6 °F 30.1 in NNW 2.2 mph 6 mph 98% 0 in 0 W/m2
02:17 49.8 °F 49.6 °F 30.1 in NNW 3.8 mph 8.3 mph 99% 0 in 0 W/m2
02:22 49.5 °F 49.3 °F 30.1 in NW 6 mph 6.9 mph 99% 0 in 0 W/m2
02:26 49.5 °F 49.3 °F 30.1 in NW 4.5 mph 6.9 mph 99% 0 in 0 W/m2
02:31 49.5 °F 49.3 °F 30.1 in NW 3.8 mph 7.6 mph 99% 0 in 0 W/m2
02:36 49.5 °F 49.3 °F 30.1 in NNW 4.5 mph 8.3 mph 99% 0 in 0 W/m2
02:41 49.5 °F 49.3 °F 30.1 in NNW 4.5 mph 8.3 mph 99% 0 in 0 W/m2
02:46 49.5 °F 49.3 °F 30.1 in NNW 5.4 mph 8.3 mph 99% 0 in 0 W/m2
02:51 49.5 °F 49.3 °F 30.1 in NNW 3.8 mph 8.3 mph 99% 0 in 0 W/m2
02:56 49.5 °F 49.3 °F 30.1 in NNW 3.8 mph 9.2 mph 99% 0 in 0 W/m2
03:01 49.5 °F 49.3 °F 30.1 in NNW 3.1 mph 9.2 mph 99% 0 in 0 W/m2
03:06 49.5 °F 48.9 °F 30.1 in North 3.1 mph 8.3 mph 98% 0 in 0 W/m2
03:11 49.5 °F 48.9 °F 30.1 in North 3.8 mph 9.2 mph 98% 0 in 0 W/m2
03:16 49.5 °F 48.9 °F 30.1 in NNW 3.8 mph 9.2 mph 98% 0 in 0 W/m2
03:21 49.3 °F 48.7 °F 30.1 in NNW 3.1 mph 8.3 mph 98% 0 in 0 W/m2
03:26 49.5 °F 48.9 °F 30.1 in NNW 0.7 mph 8.3 mph 98% 0 in 0 W/m2
03:31 49.3 °F 48.7 °F 30.1 in NNW 6.9 mph 9.2 mph 98% 0 in 0 W/m2
03:36 49.3 °F 48.7 °F 30 in NNW 3.8 mph 9.2 mph 98% 0 in 0 W/m2
03:41 49.3 °F 48.7 °F 30 in NW 3.8 mph 9.2 mph 98% 0 in 0 W/m2
03:46 49.3 °F 48.7 °F 30 in NW 5.4 mph 8.3 mph 98% 0 in 0 W/m2
03:51 49.1 °F 48.6 °F 30 in NW 3.1 mph 8.3 mph 98% 0 in 0 W/m2
03:56 48.9 °F 48 °F 30 in NW 6 mph 7.6 mph 97% 0 in 0 W/m2
04:01 48.7 °F 47.8 °F 30 in NW 5.4 mph 8.3 mph 97% 0 in 0 W/m2
04:06 48.6 °F 48 °F 30 in NW 4.5 mph 9.2 mph 98% 0 in 0 W/m2
04:11 48.4 °F 47.8 °F 30 in NW 5.4 mph 9.2 mph 98% 0 in 0 W/m2
04:16 48.2 °F 47.7 °F 30 in NW 4.5 mph 8.3 mph 98% 0 in 0 W/m2
04:21 48.4 °F 47.8 °F 30 in NNW 6 mph 8.3 mph 98% 0 in 0 W/m2
04:26 48.4 °F 47.8 °F 30 in NW 3.1 mph 8.3 mph 98% 0 in 0 W/m2
04:31 48.6 °F 48 °F 30 in NNW 4.5 mph 8.3 mph 98% 0 in 0 W/m2
04:36 48.7 °F 48.6 °F 30 in NNW 2.2 mph 9.2 mph 99% 0 in 0 W/m2
04:41 48.6 °F 48 °F 30 in NW 5.4 mph 9.2 mph 98% 0 in 0 W/m2
04:46 48.6 °F 48 °F 30 in NNW 4.5 mph 9.2 mph 98% 0 in 0 W/m2
04:51 48.2 °F 47.7 °F 30 in NNW 5.4 mph 7.6 mph 98% 0 in 0 W/m2
04:56 48 °F 47.8 °F 30 in NW 3.8 mph 6.9 mph 99% 0 in 0 W/m2
05:01 47.8 °F 47.7 °F 30 in Calm   7.6 mph 99% 0 in 0 W/m2
05:06 47.8 °F 47.7 °F 30 in NW 4.5 mph 7.6 mph 99% 0 in 0 W/m2
05:11 47.8 °F 47.7 °F 30 in NNW 5.4 mph 10.7 mph 99% 0 in 0 W/m2
05:16 47.8 °F 47.7 °F 30 in NNW 4.5 mph 10.7 mph 99% 0 in 0 W/m2
05:21 47.7 °F 47.5 °F 30 in NW 4.5 mph 10.7 mph 99% 0 in 0 W/m2
05:26 47.8 °F 47.7 °F 30 in NNW 5.4 mph 11.4 mph 99% 0 in 0 W/m2
05:31 48 °F 47.8 °F 30 in NNW 6 mph 11.4 mph 99% 0 in 0 W/m2
05:36 48 °F 47.8 °F 30 in NW 4.5 mph 10.7 mph 99% 0 in 0 W/m2
05:41 47.8 °F 47.7 °F 30 in NW 4.5 mph 10.7 mph 99% 0 in 0 W/m2
05:46 47.7 °F 47.5 °F 30 in NNW 3.8 mph 9.2 mph 99% 0 in 0 W/m2
05:51 47.7 °F 47.5 °F 30 in NW 5.4 mph 8.3 mph 99% 0 in 0 W/m2
05:56 47.3 °F 46.9 °F 30 in NW 5.4 mph 9.2 mph 99% 0 in 0 W/m2
05:58 47.3 °F 46.9 °F 30 in NW 3.8 mph 9.2 mph 99% 0 in 0 W/m2
06:03 47.3 °F 46.9 °F 30 in NNW 5.4 mph 9.2 mph 99% 0 in 0 W/m2
06:08 47.3 °F 46.9 °F 30 in NNW 6 mph 8.3 mph 99% 0 in 0 W/m2
06:13 47.3 °F 46.9 °F 30 in NW 3.8 mph 9.2 mph 99% 0 in 0 W/m2
06:18 47.3 °F 46.9 °F 30 in NW 3.8 mph 9.2 mph 99% 0 in 0 W/m2
06:23 47.7 °F 47.5 °F 30 in NNW 6 mph 9.8 mph 99% 0 in 0 W/m2
06:28 47.8 °F 47.7 °F 30 in North 6.9 mph 10.7 mph 99% 0 in 0 W/m2
06:33 48 °F 47.8 °F 30 in NNW 5.4 mph 10.7 mph 99% 0 in 0 W/m2
06:38 48.2 °F 47.7 °F 30 in NNW 4.5 mph 10.7 mph 98% 0 in 0 W/m2
06:43 48.2 °F 47.7 °F 30 in NNW 4.5 mph 10.7 mph 98% 0 in 0 W/m2
06:48 48.2 °F 47.5 °F 30 in NNW 6.9 mph 11.4 mph 97% 0 in 2 W/m2
06:53 48.2 °F 47.5 °F 30 in NNW 6.9 mph 11.4 mph 97% 0 in 5 W/m2
06:58 47.8 °F 47.3 °F 30 in NNW 6.9 mph 11.4 mph 98% 0 in 8 W/m2
07:03 47.7 °F 46.9 °F 30 in NNW 4.5 mph 12.1 mph 97% 0 in 12 W/m2
07:08 47.5 °F 46.8 °F 30 in NNW 7.6 mph 12.1 mph 97% 0 in 14 W/m2
07:13 47.5 °F 46.9 °F 30 in NNW 5.4 mph 10.7 mph 98% 0 in 55 W/m2
07:18 48 °F 47.5 °F 30 in NNW 6 mph 10.7 mph 98% 0 in 74 W/m2
07:23 48.7 °F 47.8 °F 30 in North 6.9 mph 11.4 mph 97% 0 in 89 W/m2
07:28 49.1 °F 48 °F 30 in North 4.5 mph 11.4 mph 96% 0 in 103 W/m2
07:33 49.5 °F 48 °F 30 in NNW 6.9 mph 11.4 mph 95% 0 in 116 W/m2
07:38 49.8 °F 48.2 °F 30 in NNW 5.4 mph 11.4 mph 94% 0 in 127 W/m2
07:43 50.4 °F 48.4 °F 30 in NNW 1.6 mph 9.8 mph 93% 0 in 140 W/m2
07:48 50.5 °F 48.4 °F 30 in NNW 6 mph 10.7 mph 92% 0 in 152 W/m2
07:53 51.1 °F 48.6 °F 30 in NNW 4.5 mph 10.7 mph 91% 0 in 165 W/m2
07:58 51.3 °F 48.4 °F 30 in NNW 3.1 mph 8.3 mph 90% 0 in 176 W/m2
08:03 51.8 °F 48.7 °F 30 in Calm   7.6 mph 89% 0 in 189 W/m2
08:08 52.5 °F 49.1 °F 30 in Calm   5.4 mph 88% 0 in 198 W/m2
08:13 53.1 °F 48.9 °F 30 in NNW 4.5 mph 9.2 mph 86% 0 in 213 W/m2
08:18 53.4 °F 48.9 °F 30 in NNW 2.2 mph 9.2 mph 85% 0 in 225 W/m2
08:23 53.8 °F 48.7 °F 30 in NNW 3.8 mph 9.2 mph 83% 0 in 239 W/m2
08:28 54.5 °F 49.5 °F 30 in Calm   6 mph 83% 0 in 254 W/m2
08:33 55.6 °F 50.2 °F 30 in NW 6 mph 8.3 mph 82% 0 in 271 W/m2
08:38 56.8 °F 50.7 °F 30 in NW 4.5 mph 8.3 mph 80% 0 in 283 W/m2
08:43 56.8 °F 50.2 °F 30 in NW 2.2 mph 8.3 mph 78% 0 in 294 W/m2
08:48 57.2 °F 50.2 °F 30 in NW 3.8 mph 7.6 mph 77% 0 in 304 W/m2
08:53 57.4 °F 49.8 °F 30 in NNW 4.5 mph 7.6 mph 76% 0 in 311 W/m2
08:58 57.6 °F 50.4 °F 30 in NW 3.1 mph 7.6 mph 77% 0 in 319 W/m2
09:03 57.7 °F 50.2 °F 30 in North 6 mph 8.3 mph 76% 0 in 326 W/m2
09:08 57.6 °F 50.2 °F 30 in North 4.5 mph 8.3 mph 76% 0 in 331 W/m2
09:13 58.3 °F 51.1 °F 30 in NNW 3.1 mph 7.6 mph 77% 0 in 340 W/m2
09:18 59 °F 51.4 °F 30 in NW 3.1 mph 6.9 mph 76% 0 in 347 W/m2
09:23 59 °F 50.7 °F 30 in NW 3.1 mph 6.9 mph 74% 0 in 351 W/m2
09:28 59.5 °F 51.6 °F 30 in NW 2.2 mph 6.9 mph 75% 0 in 352 W/m2
09:33 60.3 °F 52 °F 30 in NW 3.1 mph 6 mph 74% 0 in 341 W/m2
09:38 60.8 °F 52.2 °F 30 in NNW 2.2 mph 5.4 mph 73% 0 in 168 W/m2
09:43 61.3 °F 52.5 °F 30 in NNW 3.1 mph 5.4 mph 73% 0 in 67 W/m2
09:48 61.9 °F 52.9 °F 30 in North 3.8 mph 6 mph 72% 0 in 62 W/m2
09:53 62.8 °F 53.2 °F 30 in North 4.5 mph 6 mph 71% 0 in 59 W/m2
09:58 63.5 °F 52.9 °F 30 in NNW 6 mph 10.7 mph 68% 0 in 57 W/m2
10:03 63 °F 51.8 °F 30 in NNW 3.1 mph 10.7 mph 67% 0 in 57 W/m2
10:08 63.3 °F 52.5 °F 30 in NNW 3.8 mph 9.2 mph 68% 0 in 58 W/m2
10:13 64.2 °F 53.4 °F 30 in North 3.1 mph 8.3 mph 68% 0 in 62 W/m2
10:18 65.3 °F 54.1 °F 30 in North 3.8 mph 8.3 mph 67% 0 in 70 W/m2
10:23 66 °F 54.3 °F 30 in North 4.5 mph 7.6 mph 66% 0 in 161 W/m2
10:28 66 °F 53.4 °F 30 in North 6.9 mph 10.7 mph 64% 0 in 81 W/m2
10:33 66 °F 53.4 °F 30 in North 3.8 mph 10.7 mph 64% 0 in 330 W/m2
10:38 66.4 °F 53.4 °F 30 in North 5.4 mph 10.7 mph 63% 0 in 405 W/m2
10:43 67.1 °F 53.2 °F 30 in NNW 3.8 mph 10.7 mph 61% 0 in 94 W/m2
10:48 67.3 °F 53.4 °F 30 in NNW 6.9 mph 10.7 mph 61% 0 in 419 W/m2
10:53 67.1 °F 52.9 °F 30 in North 6 mph 12.1 mph 60% 0 in 423 W/m2
10:58 67.6 °F 53.2 °F 30 in North 5.4 mph 12.1 mph 60% 0 in 428 W/m2
11:03 68 °F 52.7 °F 30 in North 6 mph 12.1 mph 58% 0 in 387 W/m2
11:08 68.2 °F 51.4 °F 30 in NNW 6.9 mph 13.6 mph 55% 0 in 364 W/m2
11:13 68 °F 51.6 °F 30 in NNW 4.5 mph 13.6 mph 56% 0 in 437 W/m2
11:18 68.5 °F 51.8 °F 30 in NNW 7.6 mph 14.5 mph 55% 0 in 436 W/m2
11:23 68.9 °F 51.6 °F 30 in NNW 3.8 mph 14.5 mph 54% 0 in 437 W/m2
11:28 69.3 °F 52 °F 30 in North 6.9 mph 13 mph 54% 0 in 438 W/m2
11:33 69.3 °F 51.4 °F 30 in NNW 6 mph 13 mph 53% 0 in 440 W/m2
11:38 69.8 °F 52 °F 30 in NNW 9.2 mph 13 mph 53% 0 in 442 W/m2
11:43 69.8 °F 51.4 °F 30 in NNW 3.8 mph 13 mph 52% 0 in 441 W/m2
11:48 70 °F 51.6 °F 30 in NNW 8.3 mph 11.4 mph 52% 0 in 441 W/m2
11:53 70 °F 51.6 °F 30 in NNW 6 mph 11.4 mph 52% 0 in 440 W/m2
11:58 70 °F 50.5 °F 30 in NNW 8.3 mph 12.1 mph 50% 0 in 436 W/m2
12:03 70 °F 50.5 °F 30 in NNW 8.3 mph 13.6 mph 50% 0 in 434 W/m2
12:08 70 °F 50.5 °F 30 in NNW 6 mph 16.8 mph 50% 0 in 433 W/m2
12:13 70.5 °F 50.5 °F 30 in North 9.8 mph 16.8 mph 49% 0 in 429 W/m2
12:18 70.7 °F 50.5 °F 30 in NNW 9.2 mph 13.6 mph 49% 0 in 425 W/m2
12:23 71.2 °F 51.6 °F 30 in NNW 7.6 mph 15.9 mph 50% 0 in 427 W/m2
12:28 71.8 °F 49.8 °F 30 in NNW 6 mph 15.9 mph 46% 0 in 425 W/m2
12:33 71.4 °F 49.6 °F 30 in NNW 8.3 mph 14.5 mph 46% 0 in 419 W/m2
12:38 71.4 °F 50.2 °F 30 in NW 7.6 mph 14.5 mph 47% 0 in 413 W/m2
12:43 71.6 °F 48.6 °F 30 in NW 10.7 mph 15.9 mph 44% 0 in 407 W/m2
12:48 71.4 °F 49.6 °F 30 in NW 6.9 mph 15.9 mph 46% 0 in 396 W/m2
12:53 72.3 °F 49.8 °F 30 in NNW 6.9 mph 15.2 mph 45% 0 in 394 W/m2
12:58 72.9 °F 50.4 °F 30 in North 9.2 mph 13 mph 45% 0 in 389 W/m2
13:03 72.7 °F 49.5 °F 30 in North 6 mph 13.6 mph 44% 0 in 385 W/m2
13:21 72.9 °F 50.9 °F 30 in NW 9.8 mph 14.5 mph 46% 0 in 308 W/m2
13:26 72.5 °F 49.5 °F 29.9 in NW 7.6 mph 15.9 mph 44% 0 in 287 W/m2
13:31 72.5 °F 49.5 °F 29.9 in NW 7.6 mph 16.8 mph 44% 0 in 249 W/m2
13:36 72.5 °F 50 °F 29.9 in NW 4.5 mph 16.8 mph 45% 0 in 334 W/m2
13:41 73.2 °F 50 °F 29.9 in NW 6.9 mph 14.5 mph 44% 0 in 322 W/m2
13:46 73.2 °F 50.5 °F 29.9 in NW 4.5 mph 13 mph 45% 0 in 240 W/m2
13:51 72.7 °F 49.5 °F 29.9 in NW 10.7 mph 15.9 mph 44% 0 in 196 W/m2
13:56 72.9 °F 50.9 °F 29.9 in NW 6.9 mph 15.9 mph 46% 0 in 220 W/m2
14:01 73.2 °F 50.5 °F 29.9 in NNW 5.4 mph 13.6 mph 45% 0 in 160 W/m2
14:06 73.4 °F 51.4 °F 29.9 in NNW 8.3 mph 19 mph 46% 0 in 104 W/m2
14:12 73 °F 49.8 °F 29.9 in NW 9.8 mph 19 mph 44% 0 in 69 W/m2
14:17 72.9 °F 50.4 °F 29.9 in NW 10.7 mph 22.1 mph 45% 0 in 66 W/m2
14:22 73 °F 51.1 °F 29.9 in NW 9.2 mph 22.1 mph 46% 0 in 65 W/m2
14:27 73.9 °F 52 °F 29.9 in NNW 5.4 mph 15.2 mph 46% 0 in 65 W/m2
14:32 74.1 °F 51.4 °F 29.9 in NNW 5.4 mph 14.5 mph 45% 0 in 64 W/m2
14:37 73.4 °F 51.4 °F 29.9 in NNW 6 mph 14.5 mph 46% 0 in 65 W/m2
14:42 74.1 °F 52 °F 29.9 in NNW 5.4 mph 13.6 mph 46% 0 in 63 W/m2
14:47 73.9 °F 51.3 °F 29.9 in NNW 9.2 mph 13 mph 45% 0 in 64 W/m2
14:52 73.6 °F 51.1 °F 29.9 in North 8.3 mph 15.2 mph 45% 0 in 67 W/m2
14:57 73.4 °F 51.4 °F 29.9 in North 4.5 mph 15.2 mph 46% 0 in 67 W/m2
15:02 73.9 °F 52 °F 29.9 in NNW 6 mph 15.2 mph 46% 0 in 68 W/m2
15:07 73.4 °F 51.4 °F 29.9 in NNW 9.2 mph 13 mph 46% 0 in 74 W/m2
15:12 73.4 °F 51.4 °F 29.9 in NNW 12.1 mph 18.3 mph 46% 0 in 116 W/m2
15:17 72.7 °F 50.7 °F 29.9 in NNW 6.9 mph 18.3 mph 46% 0 in 182 W/m2
15:22 72.5 °F 50 °F 29.9 in NNW 11.4 mph 18.3 mph 45% 0 in 177 W/m2
15:27 72.3 °F 50.4 °F 29.9 in NW 8.3 mph 17.4 mph 46% 0 in 167 W/m2
15:32 72.7 °F 50.7 °F 29.9 in NNW 6.9 mph 15.2 mph 46% 0 in 162 W/m2
15:37 72.7 °F 50.7 °F 29.9 in NNW 6 mph 13 mph 46% 0 in 154 W/m2
15:42 72.9 °F 50.4 °F 29.9 in NW 11.4 mph 21.3 mph 45% 0 in 145 W/m2
15:47 72 °F 50.2 °F 29.9 in NW 8.3 mph 21.3 mph 46% 0 in 131 W/m2
15:52 72 °F 50.7 °F 29.9 in NW 7.6 mph 17.4 mph 47% 0 in 121 W/m2
15:57 72 °F 50.7 °F 29.9 in NNW 6.9 mph 15.2 mph 47% 0 in 111 W/m2
16:02 72.1 °F 51.4 °F 29.9 in NW 6.9 mph 14.5 mph 48% 0 in 94 W/m2
16:07 71.8 °F 51.1 °F 29.9 in NNW 9.8 mph 15.2 mph 48% 0 in 81 W/m2
16:12 71.6 °F 50.9 °F 29.9 in NNW 7.6 mph 15.2 mph 48% 0 in 79 W/m2
16:17 71.2 °F 51.1 °F 29.9 in NNW 9.8 mph 14.5 mph 49% 0 in 82 W/m2
16:22 71.2 °F 51.1 °F 29.9 in NNW 9.2 mph 14.5 mph 49% 0 in 83 W/m2
16:27 71.2 °F 51.6 °F 29.9 in NNW 5.4 mph 14.5 mph 50% 0 in 76 W/m2
16:32 71.2 °F 51.6 °F 29.9 in NNW 6.9 mph 12.1 mph 50% 0 in 70 W/m2
16:37 71.1 °F 51.4 °F 29.9 in NNW 5.4 mph 13.6 mph 50% 0 in 67 W/m2
16:42 70.9 °F 52 °F 29.9 in NNW 5.4 mph 13.6 mph 51% 0 in 62 W/m2
16:47 70.9 °F 52 °F 29.9 in NW 6.9 mph 12.1 mph 51% 0 in 53 W/m2
16:52 70.7 °F 51.6 °F 29.9 in NW 4.5 mph 13 mph 51% 0 in 43 W/m2
16:57 70.9 °F 52.3 °F 29.9 in NNW 1.6 mph 13 mph 52% 0 in 37 W/m2
17:02 70.5 °F 51.4 °F 29.9 in NNE 5.4 mph 9.8 mph 51% 0 in 31 W/m2
17:07 69.1 °F 51.3 °F 29.9 in North 2.2 mph 8.3 mph 53% 0 in 16 W/m2
17:12 68 °F 51.3 °F 29.9 in North 3.8 mph 8.3 mph 55% 0 in 12 W/m2
17:17 67.5 °F 51.6 °F 29.9 in North 2.2 mph 9.2 mph 57% 0 in 7 W/m2
17:22 66.7 °F 51.4 °F 29.9 in NNE 0.7 mph 13 mph 58% 0 in 4 W/m2
17:27 66.4 °F 51.3 °F 29.9 in NNE 5.4 mph 13 mph 58% 0 in 0 W/m2
17:32 66 °F 51.3 °F 29.9 in North 5.4 mph 10.7 mph 59% 0 in 0 W/m2
17:37 66 °F 51.3 °F 29.9 in North 3.8 mph 10.7 mph 59% 0 in 0 W/m2
17:42 66 °F 51.3 °F 29.9 in North 3.1 mph 9.8 mph 59% 0 in 0 W/m2
17:47 65.5 °F 51.3 °F 29.9 in NNW 3.1 mph 7.6 mph 60% 0 in 0 W/m2
17:52 64.9 °F 51.3 °F 29.9 in NNW 4.5 mph 9.2 mph 61% 0 in 0 W/m2
17:57 64.9 °F 51.3 °F 29.9 in NNW 2.2 mph 9.2 mph 61% 0 in 0 W/m2
18:01 64.9 °F 51.3 °F 29.9 in NNW 1.6 mph 9.2 mph 61% 0 in 0 W/m2
18:06 64.8 °F 51.1 °F 29.9 in NNW 3.8 mph 6.9 mph 61% 0 in 0 W/m2
18:11 64.6 °F 50.7 °F 29.9 in NNW 5.4 mph 6.9 mph 61% 0 in 0 W/m2
18:16 64.4 °F 51.1 °F 29.9 in NW 6.9 mph 9.8 mph 62% 0 in 0 W/m2
18:21 64.4 °F 51.1 °F 29.9 in NNW 3.8 mph 9.8 mph 62% 0 in 0 W/m2
18:26 64 °F 51.3 °F 29.9 in NNW 8.3 mph 11.4 mph 63% 0 in 0 W/m2
18:31 64.2 °F 50.9 °F 29.9 in NNW 6.9 mph 11.4 mph 62% 0 in 0 W/m2
18:36 64.4 °F 51.1 °F 29.9 in NNW 6 mph 11.4 mph 62% 0 in 0 W/m2
18:41 64.6 °F 51.3 °F 29.9 in NNW 4.5 mph 11.4 mph 62% 0 in 0 W/m2
18:46 64.4 °F 51.1 °F 29.9 in NNW 5.4 mph 10.7 mph 62% 0 in 0 W/m2
18:51 64.2 °F 50.9 °F 29.9 in NNW 6 mph 11.4 mph 62% 0 in 0 W/m2
18:56 64 °F 51.3 °F 29.9 in North 7.6 mph 12.1 mph 63% 0 in 0 W/m2
19:01 63.9 °F 51.1 °F 29.9 in North 8.3 mph 12.1 mph 63% 0 in 0 W/m2
19:06 64 °F 50.7 °F 29.9 in NNW 7.6 mph 15.2 mph 62% 0 in 0 W/m2
19:24 63.9 °F 51.1 °F 29.9 in NNW 6.9 mph 12.1 mph 63% 0 in 0 W/m2
19:28 63.9 °F 51.1 °F 29.9 in NNW 3.8 mph 10.7 mph 63% 0 in 0 W/m2
19:33 63.5 °F 50.7 °F 29.9 in NNW 6 mph 9.8 mph 63% 0 in 0 W/m2
19:38 63.3 °F 51.1 °F 29.9 in NW 4.5 mph 13 mph 64% 0 in 0 W/m2
19:43 63.1 °F 50.7 °F 29.9 in NNW 5.4 mph 13 mph 64% 0 in 0 W/m2
19:48 63.1 °F 50.7 °F 29.9 in NNW 3.8 mph 9.2 mph 64% 0 in 0 W/m2
19:53 63.1 °F 50.7 °F 29.9 in North 1.6 mph 9.2 mph 64% 0 in 0 W/m2
19:58 63.1 °F 50.7 °F 29.9 in North 4.5 mph 8.3 mph 64% 0 in 0 W/m2
20:03 63 °F 50.5 °F 29.9 in NNE 3.1 mph 8.3 mph 64% 0 in 0 W/m2
20:08 63.1 °F 50.7 °F 29.9 in North 3.8 mph 9.2 mph 64% 0 in 0 W/m2
20:13 63.1 °F 50.7 °F 29.9 in NW 3.1 mph 9.2 mph 64% 0 in 0 W/m2
20:18 63.1 °F 50.7 °F 29.9 in NW 6 mph 11.4 mph 64% 0 in 0 W/m2
20:23 63.7 °F 50.9 °F 29.9 in NNW 6 mph 11.4 mph 63% 0 in 0 W/m2
20:28 63.9 °F 50.5 °F 29.9 in NNW 3.8 mph 11.4 mph 62% 0 in 0 W/m2
20:33 64 °F 50.7 °F 29.9 in NNW 5.4 mph 11.4 mph 62% 0 in 0 W/m2
20:38 64.2 °F 50.9 °F 29.9 in North 3.1 mph 9.8 mph 62% 0 in 0 W/m2
20:43 63.7 °F 50.9 °F 29.9 in North 1.6 mph 9.8 mph 63% 0 in 0 W/m2
20:48 63.1 °F 50.4 °F 29.9 in NNW 6.9 mph 9.2 mph 63% 0 in 0 W/m2
20:53 63.3 °F 51.1 °F 29.9 in NNW 8.3 mph 11.4 mph 64% 0 in 0 W/m2
20:58 63.7 °F 50.9 °F 29.9 in NNW 5.4 mph 13 mph 63% 0 in 0 W/m2
21:03 63.3 °F 51.1 °F 29.9 in NW 6.9 mph 13.6 mph 64% 0 in 0 W/m2
21:08 63 °F 50.5 °F 29.9 in NNW 5.4 mph 13.6 mph 64% 0 in 0 W/m2
21:14 62.8 °F 50.9 °F 29.9 in NNW 7.6 mph 13.6 mph 65% 0 in 0 W/m2
21:19 62.4 °F 51.3 °F 29.9 in NNW 6 mph 14.5 mph 67% 0 in 0 W/m2
21:24 62.1 °F 51.1 °F 29.9 in NNW 6.9 mph 14.5 mph 67% 0 in 0 W/m2
21:29 61.9 °F 51.3 °F 29.9 in North 6 mph 13 mph 68% 0 in 0 W/m2
21:34 61.7 °F 51.1 °F 29.9 in NNW 5.4 mph 10.7 mph 68% 0 in 0 W/m2
21:39 61.5 °F 51.3 °F 29.9 in North 4.5 mph 9.8 mph 69% 0 in 0 W/m2
21:44 61.2 °F 51.3 °F 29.9 in North 3.8 mph 9.2 mph 70% 0 in 0 W/m2
21:49 60.6 °F 52 °F 29.9 in NNW 5.4 mph 9.2 mph 73% 0 in 0 W/m2
21:54 60.3 °F 51.6 °F 29.9 in North 6 mph 10.7 mph 73% 0 in 0 W/m2
21:59 60.4 °F 51.8 °F 29.9 in North 6.9 mph 12.1 mph 73% 0 in 0 W/m2
22:04 60.8 °F 51.6 °F 29.9 in North 6 mph 13 mph 72% 0 in 0 W/m2
22:09 61 °F 52 °F 29.9 in North 5.4 mph 13 mph 72% 0 in 0 W/m2
22:14 61.2 °F 51.6 °F 29.9 in North 6 mph 13 mph 71% 0 in 0 W/m2
22:19 61.3 °F 51.4 °F 29.9 in North 6.9 mph 11.4 mph 70% 0 in 0 W/m2
22:24 61.3 °F 51.4 °F 29.9 in North 7.6 mph 11.4 mph 70% 0 in 0 W/m2
22:29 61.3 °F 51.4 °F 29.9 in North 5.4 mph 10.7 mph 70% 0 in 0 W/m2
22:34 61.3 °F 51.4 °F 29.9 in North 6.9 mph 11.4 mph 70% 0 in 0 W/m2
22:39 61.9 °F 51.6 °F 29.9 in NNW 6 mph 14.5 mph 69% 0 in 0 W/m2
22:49 62.4 °F 51.6 °F 29.9 in NNW 5.4 mph 12.1 mph 68% 0 in 0 W/m2
22:54 62.2 °F 51.6 °F 29.9 in North 5.4 mph 11.4 mph 68% 0 in 0 W/m2
22:59 62.1 °F 51.4 °F 29.9 in North 7.6 mph 10.7 mph 68% 0 in 0 W/m2
23:04 62.1 °F 51.4 °F 29.9 in North 3.8 mph 11.4 mph 68% 0 in 0 W/m2
23:09 62.1 °F 51.4 °F 29.9 in North 6 mph 11.4 mph 68% 0 in 0 W/m2
23:14 61.7 °F 51.1 °F 29.9 in North 6.9 mph 9.8 mph 68% 0 in 0 W/m2
23:19 61 °F 51.1 °F 29.9 in North 3.1 mph 9.2 mph 70% 0 in 0 W/m2
23:24 60.1 °F 51.1 °F 29.9 in North 4.5 mph 9.2 mph 72% 0 in 0 W/m2
23:29 59.7 °F 51.1 °F 29.9 in North 0.7 mph 8.3 mph 73% 0 in 0 W/m2
23:34 59.7 °F 51.4 °F 29.9 in NNE 3.1 mph 6 mph 74% 0 in 0 W/m2
23:39 60.1 °F 51.8 °F 29.9 in NNE 3.1 mph 8.3 mph 74% 0 in 0 W/m2
23:49 60.4 °F 52.2 °F 29.9 in NNW 3.8 mph 6 mph 74% 0 in 0 W/m2
23:59 61 °F 52 °F 29.9 in NNW 2.2 mph 7.6 mph 72% 0 in 0 W/m2
Northern Hawkes Bay. New Zealand Historic Data
Compliments of Weather Underground - 2.25 mb